Time;durP1;ratioP1;P1;durP2;ratioP2;P2;SDS_P1;SDS_P2;PMS_P1;PMS_P2;Temp;Humidity;BMP_temperature;BMP_pressure;BME280_temperature;BME280_humidity;BME280_pressure;Samples;Min_cycle;Max_cycle;Signal;HPM_P1;HPM_P2
2022/12/25 00:02:10;;;;;;;80.10;22.42;;;;;;;;;;4881760;29;20445;-70
2022/12/25 00:04:36;;;;;;;87.15;21.98;;;;;;;;;;4880732;29;20387;-70
2022/12/25 00:07:02;;;;;;;66.47;20.70;;;;;;;;;;4865952;29;20496;-70
2022/12/25 00:09:28;;;;;;;76.80;23.25;;;;;;;;;;4896201;29;20436;-70
2022/12/25 00:11:54;;;;;;;86.57;22.77;;;;;;;;;;4880522;29;20502;-70
2022/12/25 00:14:20;;;;;;;78.22;20.83;;;;;;;;;;4879207;29;20389;-70
2022/12/25 00:16:47;;;;;;;78.10;22.20;;;;;;;;;;4863096;29;20049;-70
2022/12/25 00:19:13;;;;;;;96.28;22.05;;;;;;;;;;4863739;29;20049;-70
2022/12/25 00:21:39;;;;;;;79.25;23.08;;;;;;;;;;4880816;29;20055;-70
2022/12/25 00:24:05;;;;;;;80.32;23.52;;;;;;;;;;4875178;29;20393;-70
2022/12/25 00:26:31;;;;;;;87.88;22.55;;;;;;;;;;4878045;29;20099;-70
2022/12/25 00:28:57;;;;;;;86.18;22.77;;;;;;;;;;4873846;29;20056;-70
2022/12/25 00:31:24;;;;;;;96.55;25.67;;;5.80;99.90;;;;;;4866389;29;20053;-70
2022/12/25 00:33:50;;;;;;;92.55;23.10;;;;;;;;;;4862544;29;20051;-70
2022/12/25 00:36:18;;;;;;;105.93;22.58;;;;;;;;;;4862875;29;20049;-70
2022/12/25 00:38:45;;;;;;;92.35;24.25;;;;;;;;;;4864774;29;20057;-70
2022/12/25 00:42:17;;;;;;;103.95;21.77;;;6.10;99.90;;;;;;4881282;29;20053;-70
2022/12/25 00:44:05;;;;;;;74.18;22.10;;;6.00;99.90;;;;;;4892916;29;20084;-70
2022/12/25 00:46:31;;;;;;;82.63;22.00;;;;;;;;;;4862586;29;20446;-70
2022/12/25 00:49:00;;;;;;;89.22;23.77;;;6.00;99.90;;;;;;4851092;29;20048;-70
2022/12/25 00:51:27;;;;;;;84.38;22.23;;;;;;;;;;4865618;29;20048;-70
2022/12/25 00:53:53;;;;;;;88.43;22.30;;;;;;;;;;4880386;29;20100;-70
2022/12/25 00:56:19;;;;;;;63.83;23.05;;;;;;;;;;4854081;29;20131;-70
2022/12/25 00:58:45;;;;;;;84.45;20.95;;;;;;;;;;4880580;29;20044;-70
2022/12/25 01:01:12;;;;;;;81.18;22.35;;;;;;;;;;4869986;29;20053;-70
2022/12/25 01:03:38;;;;;;;76.90;23.15;;;;;;;;;;4862441;29;20096;-70
2022/12/25 01:06:06;;;;;;;81.20;21.90;;;5.90;99.90;;;;;;4861803;29;20080;-70
2022/12/25 01:08:34;;;;;;;84.07;22.10;;;;;;;;;;4865160;29;20105;-70
2022/12/25 01:11:03;;;;;;;86.43;22.52;;;5.70;99.90;;;;;;4867760;29;20115;-70
2022/12/25 01:13:30;;;;;;;86.95;23.80;;;5.80;99.90;;;;;;4862496;29;20124;-70
2022/12/25 01:15:56;;;;;;;96.85;23.98;;;;;;;;;;4873284;29;20136;-70
2022/12/25 01:18:23;;;;;;;77.20;22.40;;;5.70;99.90;;;;;;4877732;29;20080;-70
2022/12/25 01:20:50;;;;;;;80.50;23.33;;;;;;;;;;4871125;29;20040;-70
2022/12/25 01:23:16;;;;;;;95.72;24.38;;;;;;;;;;4883870;29;20048;-70
2022/12/25 01:25:42;;;;;;;83.53;23.80;;;;;;;;;;4856645;29;20131;-70
2022/12/25 01:28:08;;;;;;;91.60;24.17;;;;;;;;;;4865278;29;20068;-70
2022/12/25 01:30:34;;;;;;;77.78;23.00;;;;;;;;;;4870632;29;20044;-70
2022/12/25 01:33:00;;;;;;;89.82;24.23;;;;;;;;;;4884099;29;20044;-70
2022/12/25 01:35:26;;;;;;;78.35;23.20;;;;;;;;;;4881197;29;20060;-70
2022/12/25 01:37:53;;;;;;;90.90;24.33;;;;;;;;;;4865368;29;20462;-70
2022/12/25 01:40:19;;;;;;;92.43;23.00;;;;;;;;;;4866842;29;20053;-70
2022/12/25 01:42:45;;;;;;;104.15;24.95;;;;;;;;;;4865529;29;20056;-70
2022/12/25 01:45:17;;;;;;;82.22;23.88;;;;;;;;;;4873883;29;20055;-70
2022/12/25 01:47:43;;;;;;;84.82;24.70;;;;;;;;;;4865840;29;20047;-71
2022/12/25 01:50:09;;;;;;;73.20;22.55;;;;;;;;;;4865391;29;20049;-71
2022/12/25 01:52:35;;;;;;;85.93;24.70;;;;;;;;;;4865850;29;20123;-71
2022/12/25 01:55:08;;;;;;;99.70;23.85;;;;;;;;;;4883894;29;20036;-71
2022/12/25 01:57:34;;;;;;;;;;;;;;;;;;4869874;29;20055;-71
2022/12/25 02:00:00;;;;;;;77.20;22.08;;;6.10;99.90;;;;;;4863543;29;19919;-71
2022/12/25 02:02:27;;;;;;;78.93;22.35;;;;;;;;;;4892389;29;20048;-71
2022/12/25 02:05:02;;;;;;;86.20;22.70;;;6.10;99.90;;;;;;4900369;29;20048;-71
2022/12/25 02:07:31;;;;;;;78.57;22.73;;;6.00;99.90;;;;;;4897376;29;20044;-71
2022/12/25 02:09:57;;;;;;;110.25;23.83;;;;;;;;;;4898693;29;20044;-71
2022/12/25 02:12:26;;;;;;;87.20;24.83;;;6.30;99.90;;;;;;4874671;29;20041;-71
2022/12/25 02:14:55;;;;;;;87.13;24.30;;;6.20;99.90;;;;;;4864756;29;20104;-71
2022/12/25 02:17:30;;;;;;;81.68;24.48;;;;;;;;;;4859197;29;20057;-71
2022/12/25 02:20:03;;;;;;;89.68;24.52;;;;;;;;;;4870070;29;20108;-71
2022/12/25 02:22:40;;;;;;;98.63;26.73;;;6.40;99.90;;;;;;4871954;29;20366;-71
2022/12/25 02:25:07;;;;;;;94.78;24.83;;;;;;;;;;4883486;29;20048;-71
2022/12/25 02:27:45;;;;;;;80.93;23.85;;;;;;;;;;4861195;29;20049;-71
2022/12/25 02:30:12;;;;;;;79.40;24.30;;;;;;;;;;4864321;29;20045;-71
2022/12/25 02:32:46;;;;;;;91.80;25.20;;;;;;;;;;4870016;29;20036;-71
2022/12/25 02:35:26;;;;;;;87.65;25.83;;;6.50;99.90;;;;;;4882674;29;20040;-71
2022/12/25 02:38:11;;;;;;;78.60;25.10;;;6.50;99.90;;;;;;4860552;29;20190;-71
2022/12/25 02:40:37;;;;;;;115.53;24.70;;;;;;;;;;4882026;29;20400;-71
2022/12/25 03:08:17;;;;;;;94.45;25.15;;;;;;;;;;4864253;29;20113;-71
2022/12/25 03:13:36;;;;;;;114.53;26.45;;;6.80;99.90;;;;;;4870926;29;20053;-71
2022/12/25 03:18:47;;;;;;;107.55;28.45;;;;;;;;;;4896630;29;20127;-72
2022/12/25 03:26:54;;;;;;;115.47;26.85;;;;;;;;;;4882022;29;20091;-71
2022/12/25 03:32:37;;;;;;;106.32;28.17;;;7.20;99.90;;;;;;4858604;29;20061;-71
2022/12/25 03:35:22;;;;;;;90.05;26.95;;;;;;;;;;4871556;29;20576;-71
2022/12/25 03:47:19;;;;;;;118.18;29.33;;;;;;;;;;4864414;29;20467;-71
2022/12/25 04:36:31;;;;;;;143.65;33.03;;;;;;;;;;4853163;29;20053;-71
2022/12/25 04:38:57;;;;;;;128.70;31.17;;;;;;;;;;4863938;29;20402;-71
2022/12/25 04:41:23;;;;;;;119.18;33.30;;;;;;;;;;4872787;29;20048;-71
2022/12/25 04:43:49;;;;;;;109.80;29.30;;;;;;;;;;4874240;29;20496;-71
2022/12/25 04:46:15;;;;;;;103.85;29.90;;;;;;;;;;4881071;29;20051;-71
2022/12/25 04:48:41;;;;;;;128.18;31.23;;;;;;;;;;4862906;29;20080;-71
2022/12/25 04:51:18;;;;;;;103.60;30.17;;;7.70;99.90;;;;;;4862527;29;20064;-71
2022/12/25 04:53:45;;;;;;;106.75;32.13;;;;;;;;;;4879147;29;20045;-71
2022/12/25 04:56:11;;;;;;;136.68;30.63;;;;;;;;;;4862500;29;20037;-71
2022/12/25 04:58:37;;;;;;;94.65;28.70;;;;;;;;;;4867480;29;20060;-71
2022/12/25 05:01:04;;;;;;;95.70;29.42;;;;;;;;;;4866061;29;20056;-71
2022/12/25 05:03:30;;;;;;;108.07;30.30;;;;;;;;;;4878939;29;20059;-71
2022/12/25 05:05:56;;;;;;;104.47;30.58;;;;;;;;;;4869224;29;20091;-71
2022/12/25 05:08:22;;;;;;;102.93;30.65;;;;;;;;;;4873667;29;20044;-71
2022/12/25 05:10:48;;;;;;;103.70;29.67;;;;;;;;;;4850228;29;20069;-70
2022/12/25 05:13:15;;;;;;;105.38;29.95;;;;;;;;;;4874297;29;20041;-70
2022/12/25 05:15:41;;;;;;;102.57;29.08;;;7.60;99.90;;;;;;4884636;29;20052;-71
2022/12/25 05:18:07;;;;;;;108.18;29.48;;;;;;;;;;4877155;29;20049;-71
2022/12/25 05:20:34;;;;;;;98.18;28.98;;;;;;;;;;4884341;29;20048;-71
2022/12/25 05:23:00;;;;;;;107.43;31.15;;;;;;;;;;4873948;29;20052;-71
2022/12/25 05:25:26;;;;;;;98.30;28.25;;;;;;;;;;4882328;29;20490;-71
2022/12/25 05:27:52;;;;;;;102.93;28.08;;;;;;;;;;4851704;29;20048;-71
2022/12/25 05:30:18;;;;;;;97.78;27.98;;;;;;;;;;4869302;29;20136;-71
2022/12/25 05:32:44;;;;;;;100.15;30.20;;;;;;;;;;4850276;29;20045;-71
2022/12/25 05:35:10;;;;;;;102.32;28.83;;;;;;;;;;4868438;29;20076;-71
2022/12/25 05:37:36;;;;;;;102.13;27.75;;;;;;;;;;4884056;29;20053;-70
2022/12/25 05:40:03;;;;;;;101.68;27.88;;;7.50;99.90;;;;;;4868246;29;20486;-71
2022/12/25 05:42:29;;;;;;;91.30;27.60;;;;;;;;;;4880002;29;20037;-71
2022/12/25 05:44:55;;;;;;;86.68;27.15;;;;;;;;;;4884319;29;20437;-69
2022/12/25 05:47:21;;;;;;;83.85;28.70;;;;;;;;;;4879153;29;20048;-69
2022/12/25 05:49:47;;;;;;;93.00;27.20;;;;;;;;;;4865510;29;20437;-69
2022/12/25 05:52:13;;;;;;;98.78;28.25;;;;;;;;;;4867522;29;20045;-69
2022/12/25 05:54:40;;;;;;;82.35;27.30;;;;;;;;;;4865382;29;20084;-69
2022/12/25 05:57:06;;;;;;;100.43;28.60;;;;;;;;;;4865512;29;20129;-69
2022/12/25 05:59:32;;;;;;;98.43;28.17;;;;;;;;;;4883861;29;20041;-69
2022/12/25 06:01:59;;;;;;;92.93;28.38;;;;;;;;;;4881011;29;20128;-69
2022/12/25 06:04:25;;;;;;;100.95;29.02;;;;;;;;;;4866616;29;20047;-69
2022/12/25 06:06:52;;;;;;;99.60;27.83;;;;;;;;;;4883501;29;20050;-70
2022/12/25 06:09:18;;;;;;;103.13;29.00;;;;;;;;;;4879460;29;20048;-70
2022/12/25 06:11:44;;;;;;;87.80;29.55;;;;;;;;;;4883333;29;20048;-70
2022/12/25 06:14:12;;;;;;;94.07;28.25;;;7.90;99.90;;;;;;4870358;29;20505;-71
2022/12/25 06:16:38;;;;;;;93.78;28.52;;;;;;;;;;4857047;29;20041;-71
2022/12/25 06:19:04;;;;;;;104.82;29.45;;;;;;;;;;4883099;29;20049;-71
2022/12/25 06:21:30;;;;;;;98.10;26.83;;;;;;;;;;4883365;29;20135;-71
2022/12/25 06:23:56;;;;;;;96.07;28.27;;;;;;;;;;4874418;29;20482;-71
2022/12/25 06:26:22;;;;;;;107.68;29.33;;;;;;;;;;4849279;29;20048;-71
2022/12/25 06:28:48;;;;;;;103.90;27.70;;;;;;;;;;4858135;29;20044;-71
2022/12/25 06:31:22;;;;;;;113.05;30.00;;;7.80;99.90;;;;;;4883083;29;20048;-71
2022/12/25 06:33:49;;;;;;;93.90;29.58;;;;;;;;;;4878277;29;20074;-71
2022/12/25 06:36:21;;;;;;;111.80;30.38;;;7.80;99.90;;;;;;4852986;29;20490;-71
2022/12/25 06:38:47;;;;;;;107.35;31.73;;;;;;;;;;4893946;29;20127;-71
2022/12/25 06:41:15;;;;;;;107.35;30.63;;;7.70;99.90;;;;;;4882905;29;20055;-71
2022/12/25 06:43:41;;;;;;;98.90;29.10;;;;;;;;;;4881560;29;20051;-71
2022/12/25 06:46:11;;;;;;;92.75;28.63;;;7.80;99.90;;;;;;4864271;29;20139;-71
2022/12/25 06:48:38;;;;;;;117.05;29.63;;;;;;;;;;4881004;29;20041;-71
2022/12/25 06:51:04;;;;;;;101.50;29.33;;;;;;;;;;4882364;29;20373;-71
2022/12/25 06:53:31;;;;;;;108.20;29.33;;;;;;;;;;4882346;29;20040;-71
2022/12/25 06:56:08;;;;;;;111.70;29.00;;;7.70;99.90;;;;;;4866705;29;20557;-71
2022/12/25 06:58:34;;;;;;;125.00;30.42;;;;;;;;;;4866927;29;20036;-71
2022/12/25 07:01:13;;;;;;;79.90;29.13;;;7.80;99.90;;;;;;4866747;29;20044;-71
2022/12/25 07:03:41;;;;;;;102.47;30.70;;;7.80;99.90;;;;;;4880628;29;20053;-71
2022/12/25 07:06:08;;;;;;;92.60;28.65;;;;;;;;;;4866810;29;20371;-71
2022/12/25 07:08:34;;;;;;;106.55;30.85;;;;;;;;;;4863871;29;20041;-71
2022/12/25 07:11:00;;;;;;;105.00;28.80;;;;;;;;;;4875443;29;20402;-71
2022/12/25 07:13:26;;;;;;;111.53;30.20;;;;;;;;;;4899175;29;20040;-71
2022/12/25 07:15:59;;;;;;;91.85;27.92;;;7.90;99.90;;;;;;4871122;29;20037;-71
2022/12/25 07:18:26;;;;;;;99.88;27.88;;;;;;;;;;4878783;29;20052;-71
2022/12/25 07:20:54;;;;;;;93.18;29.33;;;;;;;;;;4871944;29;20064;-71
2022/12/25 07:23:21;;;;;;;99.80;27.67;;;8.10;99.90;;;;;;4848295;29;20053;-71
2022/12/25 07:25:54;;;;;;;109.80;29.00;;;7.80;99.90;;;;;;4871776;29;20083;-71
2022/12/25 07:28:20;;;;;;;103.20;27.60;;;;;;;;;;4898708;29;20080;-71
2022/12/25 07:30:46;;;;;;;89.30;28.10;;;;;;;;;;4874360;29;20041;-70
2022/12/25 07:33:12;;;;;;;89.88;28.90;;;;;;;;;;4863456;29;20056;-70
2022/12/25 07:35:38;;;;;;;108.65;29.85;;;;;;;;;;4868283;29;20036;-70
2022/12/25 07:38:04;;;;;;;99.28;29.50;;;;;;;;;;4881360;29;20049;-70
2022/12/25 07:40:30;;;;;;;91.57;29.30;;;;;;;;;;4880452;29;20076;-70
2022/12/25 07:42:56;;;;;;;108.60;28.70;;;;;;;;;;4881816;29;20048;-70
2022/12/25 07:45:22;;;;;;;91.72;27.80;;;;;;;;;;4881155;29;20049;-70
2022/12/25 07:47:48;;;;;;;97.45;29.73;;;;;;;;;;4863597;29;20045;-70
2022/12/25 07:50:14;;;;;;;94.72;26.92;;;;;;;;;;4863273;29;20052;-70
2022/12/25 07:52:41;;;;;;;91.40;27.17;;;;;;;;;;4881153;29;20393;-70
2022/12/25 07:55:07;;;;;;;86.68;27.90;;;8.40;99.90;;;;;;4870709;29;20045;-70
2022/12/25 07:57:34;;;;;;;86.22;26.30;;;;;;;;;;4866361;29;20060;-70
2022/12/25 08:00:00;;;;;;;86.43;27.23;;;;;;;;;;4879756;29;20061;-70
2022/12/25 08:02:27;;;;;;;84.60;25.88;;;;;;;;;;4864629;29;20490;-70
2022/12/25 08:04:56;;;;;;;82.95;26.17;;;;;;;;;;4879847;29;20049;-70
2022/12/25 08:07:23;;;;;;;86.57;25.77;;;;;;;;;;4874422;29;20044;-70
2022/12/25 08:09:49;;;;;;;81.05;24.63;;;;;;;;;;4881252;29;20048;-70
2022/12/25 08:12:15;;;;;;;69.47;24.25;;;;;;;;;;4888442;29;20041;-69
2022/12/25 08:14:41;;;;;;;74.57;24.17;;;;;;;;;;4862943;29;20120;-73
2022/12/25 08:17:07;;;;;;;92.50;24.17;;;;;;;;;;4870399;29;20051;-70
2022/12/25 08:19:33;;;;;;;78.72;23.67;;;;;;;;;;4881549;29;20064;-71
2022/12/25 08:21:59;;;;;;;91.32;25.38;;;;;;;;;;4876422;29;20056;-72
2022/12/25 08:24:25;;;;;;;72.93;24.50;;;;;;;;;;4862868;29;20080;-71
2022/12/25 08:26:51;;;;;;;73.25;24.02;;;;;;;;;;4865096;29;20080;-71
2022/12/25 08:29:18;;;;;;;71.82;23.77;;;;;;;;;;4880774;29;20493;-72
2022/12/25 08:31:44;;;;;;;75.18;24.33;;;;;;;;;;4881295;29;20061;-72
2022/12/25 08:34:10;;;;;;;75.60;23.38;;;;;;;;;;4870223;29;20510;-71
2022/12/25 08:36:36;;;;;;;73.05;23.80;;;;;;;;;;4873228;29;20040;-71
2022/12/25 08:39:03;;;;;;;66.70;21.63;;;8.00;99.90;;;;;;4884195;29;20087;-71
2022/12/25 08:41:30;;;;;;;66.72;22.25;;;;;;;;;;4884522;29;20041;-71
2022/12/25 08:43:56;;;;;;;63.92;21.58;;;;;;;;;;4883940;29;20560;-71
2022/12/25 08:46:22;;;;;;;69.80;24.27;;;;;;;;;;4884876;29;20374;-72
2022/12/25 08:48:49;;;;;;;72.85;21.02;;;;;;;;;;4883085;29;20045;-72
2022/12/25 08:51:20;;;;;;;56.90;20.30;;;8.20;99.90;;;;;;4900069;29;20131;-71
2022/12/25 08:53:47;;;;;;;57.28;19.20;;;8.00;99.90;;;;;;4900211;29;20091;-72
2022/12/25 08:56:14;;;;;;;63.47;20.20;;;;;;;;;;4884388;29;20029;-72
2022/12/25 08:58:41;;;;;;;56.25;20.38;;;;;;;;;;4882725;29;20140;-72
2022/12/25 09:01:07;;;;;;;52.53;19.85;;;;;;;;;;4897299;29;20037;-71
2022/12/25 09:03:34;;;;;;;53.95;19.38;;;;;;;;;;4899501;29;20032;-72
2022/12/25 09:06:04;;;;;;;60.45;19.35;;;;;;;;;;4883239;29;20431;-72
2022/12/25 09:08:31;;;;;;;47.75;17.70;;;;;;;;;;4883608;29;20494;-72
2022/12/25 09:11:01;;;;;;;57.40;18.95;;;8.40;99.90;;;;;;4899567;29;20049;-72
2022/12/25 09:13:27;;;;;;;51.15;18.52;;;;;;;;;;4880133;29;20080;-72
2022/12/25 09:15:53;;;;;;;46.28;18.33;;;;;;;;;;4884311;29;20051;-72
2022/12/25 09:18:19;;;;;;;47.50;16.88;;;;;;;;;;4899107;29;20544;-72
2022/12/25 09:20:45;;;;;;;66.53;18.20;;;;;;;;;;4900941;29;20122;-72
2022/12/25 09:23:12;;;;;;;57.97;18.25;;;;;;;;;;4882054;29;20483;-72
2022/12/25 09:25:38;;;;;;;54.28;19.35;;;;;;;;;;4891288;29;20040;-72
2022/12/25 09:28:04;;;;;;;49.00;19.45;;;;;;;;;;4855073;29;20077;-72
2022/12/25 09:30:30;;;;;;;51.60;18.70;;;;;;;;;;4883363;29;20083;-72
2022/12/25 09:32:56;;;;;;;53.35;15.65;;;;;;;;;;4883968;29;20051;-72
2022/12/25 09:35:22;;;;;;;55.97;17.38;;;;;;;;;;4883416;29;20080;-69
2022/12/25 09:37:48;;;;;;;57.28;16.35;;;;;;;;;;4883663;29;20497;-72
2022/12/25 09:40:20;;;;;;;46.63;17.55;;;8.10;99.90;;;;;;4883036;29;20048;-72
2022/12/25 09:42:47;;;;;;;60.05;18.55;;;8.20;99.90;;;;;;4883943;29;20060;-72
2022/12/25 09:45:28;;;;;;;47.55;15.43;;;8.20;99.90;;;;;;4883179;29;20048;-73
2022/12/25 09:47:55;;;;;;;38.38;15.57;;;8.20;99.90;;;;;;4883722;29;20052;-73
2022/12/25 09:50:36;;;;;;;45.67;17.00;;;8.30;99.90;;;;;;4873512;29;20085;-72
2022/12/25 09:53:05;;;;;;;44.78;16.92;;;;;;;;;;4865466;29;20468;-72
2022/12/25 09:55:33;;;;;;;56.90;16.38;;;;;;;;;;4882545;29;20041;-72
2022/12/25 09:58:01;;;;;;;46.65;17.15;;;;;;;;;;4883465;29;20047;-72
2022/12/25 10:00:36;;;;;;;49.15;15.95;;;8.20;99.90;;;;;;4882875;29;20135;-72
2022/12/25 10:03:42;;;;;;;49.75;16.48;;;8.60;99.90;;;;;;4883622;29;20436;-72
2022/12/25 10:06:27;;;;;;;50.97;16.92;;;;;;;;;;4863383;29;20089;-72
2022/12/25 10:08:53;;;;;;;49.42;14.77;;;;;;;;;;4865677;29;20052;-72
2022/12/25 10:11:25;;;;;;;53.00;17.80;;;;;;;;;;4882360;29;20087;-72
2022/12/25 10:13:51;;;;;;;56.60;16.67;;;;;;;;;;4879030;29;20041;-72
2022/12/25 10:16:32;;;;;;;50.05;16.08;;;;;;;;;;4883102;29;20093;-72
2022/12/25 10:19:13;;;;;;;42.22;16.83;;;;;;;;;;4884679;29;20450;-72
2022/12/25 10:21:40;;;;;;;51.40;16.88;;;;;;;;;;4864741;29;20045;-72
2022/12/25 10:24:06;;;;;;;57.85;18.55;;;;;;;;;;4870308;29;20084;-72
2022/12/25 10:26:34;;;;;;;46.55;16.27;;;;;;;;;;4881756;29;20089;-72
2022/12/25 10:29:09;;;;;;;51.22;17.60;;;;;;;;;;4871990;29;20131;-72
2022/12/25 10:31:36;;;;;;;53.83;16.85;;;;;;;;;;4882515;29;20132;-73
2022/12/25 10:34:03;;;;;;;50.45;17.67;;;8.50;99.90;;;;;;4899661;29;20131;-73
2022/12/25 10:36:30;;;;;;;44.90;16.42;;;;;;;;;;4888766;29;20088;-72
2022/12/25 10:38:56;;;;;;;49.40;17.77;;;;;;;;;;4874231;29;20048;-72
2022/12/25 10:41:50;;;;;;;51.38;17.73;;;8.40;99.90;;;;;;4882612;29;20044;-72
2022/12/25 10:44:23;;;;;;;57.13;16.85;;;8.60;99.90;;;;;;4867327;29;20100;-72
2022/12/25 10:46:51;;;;;;;45.75;17.10;;;8.20;99.90;;;;;;4882322;29;20053;-72
2022/12/25 10:49:19;;;;;;;64.15;19.05;;;;;;;;;;4897060;29;20446;-72
2022/12/25 10:51:46;;;;;;;59.85;18.65;;;;;;;;;;4894242;29;20068;-73
2022/12/25 10:54:24;;;;;;;53.17;17.98;;;;;;;;;;4881703;29;20048;-73
2022/12/25 10:56:59;;;;;;;47.13;17.27;;;;;;;;;;4896951;29;20045;-72
2022/12/25 10:59:26;;;;;;;49.53;17.50;;;;;;;;;;4880303;29;20446;-73
2022/12/25 11:01:53;;;;;;;54.20;17.98;;;;;;;;;;4881193;29;20447;-73
2022/12/25 11:04:23;;;;;;;51.17;17.27;;;8.20;99.90;;;;;;4878635;29;20405;-73
2022/12/25 11:06:57;;;;;;;51.97;16.85;;;;;;;;;;4879139;29;20089;-73
2022/12/25 11:09:23;;;;;;;52.80;17.35;;;;;;;;;;4894825;29;20080;-73
2022/12/25 11:11:50;;;;;;;48.38;16.95;;;;;;;;;;4880801;29;20083;-73
2022/12/25 11:14:17;;;;;;;58.50;17.58;;;;;;;;;;4880974;29;20055;-73
2022/12/25 11:16:43;;;;;;;40.85;16.40;;;;;;;;;;4897690;29;20033;-73
2022/12/25 11:19:38;;;;;;;50.00;17.33;;;8.50;99.90;;;;;;4880829;29;20045;-73
2022/12/25 11:22:16;;;;;;;49.58;17.73;;;;;;;;;;4869645;29;20048;-73
2022/12/25 11:24:42;;;;;;;46.05;16.25;;;;;;;;;;4877920;29;20056;-73
2022/12/25 11:27:19;;;;;;;47.83;16.15;;;;;;;;;;4881072;29;20040;-71
2022/12/25 11:29:51;;;;;;;40.65;15.32;;;8.60;99.90;;;;;;4889573;29;20087;-71
2022/12/25 11:32:35;;;;;;;39.85;14.95;;;8.60;99.90;;;;;;4892984;29;20044;-71
2022/12/25 11:35:02;;;;;;;49.72;15.90;;;8.80;99.90;;;;;;4881940;29;20488;-71
2022/12/25 11:37:50;;;;;;;44.63;15.73;;;8.60;99.90;;;;;;4898028;29;20454;-70
2022/12/25 11:40:18;;;;;;;39.17;14.75;;;;;;;;;;4896863;29;20044;-71
2022/12/25 11:42:49;;;;;;;37.45;13.98;;;;;;;;;;4880932;29;20047;-71
2022/12/25 11:45:24;;;;;;;37.03;14.45;;;8.80;99.90;;;;;;4883617;29;20054;-72
2022/12/25 11:48:18;;;;;;;39.03;14.10;;;8.60;99.90;;;;;;4887117;29;20045;-72
2022/12/25 11:50:49;;;;;;;38.83;14.02;;;;;;;;;;4878532;29;20063;-72
2022/12/25 11:53:17;;;;;;;36.35;15.10;;;;;;;;;;4869403;29;20132;-72
2022/12/25 11:55:53;;;;;;;37.13;14.20;;;8.90;99.90;;;;;;4886417;29;20044;-73
2022/12/25 11:58:25;;;;;;;33.08;13.38;;;;;;;;;;4897668;29;20045;-73
2022/12/25 12:00:53;;;;;;;43.58;14.73;;;;;;;;;;4876414;29;20052;-73
2022/12/25 12:03:22;;;;;;;36.03;14.50;;;;;;;;;;4856782;29;20044;-73
2022/12/25 12:06:14;;;;;;;38.90;14.07;;;8.80;99.90;;;;;;4881204;29;20045;-72
2022/12/25 12:08:40;;;;;;;38.33;14.30;;;;;;;;;;4870621;29;20049;-72
2022/12/25 12:11:20;;;;;;;29.58;12.23;;;;;;;;;;4897323;29;20036;-72
2022/12/25 12:14:05;;;;;;;39.13;14.55;;;;;;;;;;4864372;29;20061;-72
2022/12/25 12:16:31;;;;;;;37.92;14.05;;;;;;;;;;4886096;29;20048;-72
2022/12/25 12:18:57;;;;;;;32.28;13.45;;;;;;;;;;4868264;29;20095;-71
2022/12/25 12:21:25;;;;;;;35.95;14.52;;;;;;;;;;4863979;29;20051;-71
2022/12/25 12:24:24;;;;;;;39.55;13.30;;;8.90;99.90;;;;;;4877432;29;20108;-71
2022/12/25 12:27:07;;;;;;;31.90;13.77;;;;;;;;;;4868454;29;20088;-72
2022/12/25 12:29:42;;;;;;;30.95;13.27;;;;;;;;;;4872817;29;20148;-72
2022/12/25 12:32:33;;;;;;;34.08;13.68;;;9.00;99.90;;;;;;4878207;29;20037;-72
2022/12/25 12:35:04;;;;;;;38.00;12.88;;;;;;;;;;4878096;29;20040;-73
2022/12/25 12:37:32;;;;;;;34.53;13.52;;;;;;;;;;4896184;29;20057;-73
2022/12/25 12:39:58;;;;;;;30.65;13.15;;;8.90;99.90;;;;;;4874929;29;20037;-72
2022/12/25 12:42:26;;;;;;;38.08;14.38;;;;;;;;;;4877193;29;20056;-72
2022/12/25 12:44:55;;;;;;;42.33;18.65;;;;;;;;;;4879951;29;20100;-72
2022/12/25 12:47:36;;;;;;;31.10;13.10;;;;;;;;;;4879586;29;20041;-73
2022/12/25 12:50:03;;;;;;;39.42;13.98;;;;;;;;;;4876276;29;20108;-72
2022/12/25 12:52:32;;;;;;;34.22;12.52;;;;;;;;;;4876985;29;20128;-73
2022/12/25 12:55:08;;;;;;;30.77;13.23;;;9.00;99.90;;;;;;4879759;29;20128;-72
2022/12/25 12:57:38;;;;;;;30.20;13.07;;;;;;;;;;4880518;29;20047;-73
2022/12/25 13:00:24;;;;;;;29.15;13.07;;;;;;;;;;4881505;29;20510;-72
2022/12/25 13:02:53;;;;;;;33.38;14.02;;;;;;;;;;4888525;29;20045;-71
2022/12/25 13:05:24;;;;;;;27.77;12.68;;;;;;;;;;4881048;29;20045;-71
2022/12/25 13:07:59;;;;;;;30.92;12.77;;;;;;;;;;4899340;29;20384;-71
2022/12/25 13:10:32;;;;;;;31.75;11.48;;;8.80;99.90;;;;;;4874690;29;20045;-72
2022/12/25 13:13:01;;;;;;;32.85;13.23;;;9.00;99.90;;;;;;4880641;29;20128;-72
2022/12/25 13:15:29;;;;;;;23.05;12.75;;;;;;;;;;4887904;29;20041;-72
2022/12/25 13:18:00;;;;;;;34.28;14.13;;;;;;;;;;4864067;29;20055;-72
2022/12/25 13:20:39;;;;;;;36.60;13.35;;;;;;;;;;4850651;29;20123;-73
2022/12/25 13:23:23;;;;;;;33.00;12.73;;;;;;;;;;4868242;29;20076;-73
2022/12/25 13:25:53;;;;;;;26.88;12.88;;;;;;;;;;4883564;29;20124;-73
2022/12/25 13:28:24;;;;;;;25.17;13.00;;;8.90;99.90;;;;;;4883559;29;20088;-73
2022/12/25 13:30:50;;;;;;;26.30;11.70;;;;;;;;;;4879271;29;20041;-74
2022/12/25 13:33:19;;;;;;;27.40;13.77;;;9.00;99.90;;;;;;4900904;29;20575;-74
2022/12/25 13:35:45;;;;;;;25.55;13.05;;;;;;;;;;4900360;29;20068;-73
2022/12/25 13:38:14;;;;;;;31.63;13.20;;;;;;;;;;4883586;29;20092;-73
2022/12/25 13:42:04;;;;;;;34.58;13.52;;;;;;;;;;4894383;29;20092;-73
2022/12/25 13:43:26;;;;;;;31.95;14.50;;;;;;;;;;4899431;29;20044;-73
2022/12/25 13:45:55;;;;;;;28.05;13.43;;;;;;;;;;4872351;29;20045;-73
2022/12/25 13:48:24;;;;;;;26.63;13.30;;;;;;;;;;4883904;29;20049;-73
2022/12/25 13:51:01;;;;;;;30.00;14.32;;;8.90;99.90;;;;;;4868029;29;20080;-73
2022/12/25 13:53:27;;;;;;;29.33;13.63;;;;;;;;;;4867995;29;20041;-74
2022/12/25 13:55:56;;;;;;;27.67;12.85;;;;;;;;;;4880224;29;20048;-72
2022/12/25 13:58:24;;;;;;;29.80;13.25;;;;;;;;;;4879878;29;20501;-73
2022/12/25 14:00:52;;;;;;;29.23;13.20;;;8.80;99.90;;;;;;4864406;29;20060;-72
2022/12/25 14:03:29;;;;;;;28.98;12.27;;;8.90;99.90;;;;;;4883641;29;20375;-72
2022/12/25 14:06:00;;;;;;;33.00;14.98;;;;;;;;;;4883232;29;20433;-72
2022/12/25 14:08:30;;;;;;;33.05;13.23;;;9.10;99.90;;;;;;4882256;29;20084;-72
2022/12/25 14:10:57;;;;;;;31.90;13.82;;;;;;;;;;4877781;29;20053;-72
2022/12/25 14:13:27;;;;;;;38.63;16.52;;;;;;;;;;4898787;29;20453;-73
2022/12/25 14:15:54;;;;;;;36.00;14.98;;;8.80;99.90;;;;;;4897041;29;20088;-72
2022/12/25 14:18:22;;;;;;;35.05;14.45;;;8.70;99.90;;;;;;4868401;29;20124;-72
2022/12/25 14:21:15;;;;;;;37.40;13.73;;;8.90;99.90;;;;;;4877207;29;20044;-72
2022/12/25 14:23:46;;;;;;;25.52;12.32;;;8.80;99.90;;;;;;4874107;29;20044;-72
2022/12/25 14:26:18;;;;;;;31.35;13.25;;;8.80;99.90;;;;;;4865274;29;20076;-72
2022/12/25 14:28:48;;;;;;;30.98;13.63;;;;;;;;;;4882614;29;20055;-72
2022/12/25 14:31:15;;;;;;;35.22;13.80;;;;;;;;;;4878092;29;20052;-72
2022/12/25 14:33:42;;;;;;;29.42;14.05;;;8.90;99.90;;;;;;4883296;29;20056;-69
2022/12/25 14:36:10;;;;;;;32.92;13.02;;;;;;;;;;4871415;29;20127;-70
2022/12/25 14:38:39;;;;;;;31.20;13.70;;;;;;;;;;4865113;29;20092;-70
2022/12/25 14:41:18;;;;;;;34.75;14.05;;;;;;;;;;4882920;29;20394;-70
2022/12/25 14:43:54;;;;;;;28.50;13.50;;;9.10;99.90;;;;;;4898682;29;20047;-70
2022/12/25 14:46:26;;;;;;;29.25;14.02;;;8.90;99.90;;;;;;4872712;29;20045;-70
2022/12/25 14:48:58;;;;;;;32.40;14.32;;;;;;;;;;4863558;29;20053;-70
2022/12/25 14:51:24;;;;;;;;;;;8.90;99.90;;;;;;4879061;29;20049;-70
2022/12/25 14:53:56;;;;;;;29.25;13.07;;;;;;;;;;4865100;29;19927;-70
2022/12/25 14:56:24;;;;;;;27.67;13.13;;;9.10;99.90;;;;;;4887093;29;20123;-71
2022/12/25 14:58:52;;;;;;;28.75;13.45;;;;;;;;;;4899326;29;20850;-70
2022/12/25 15:01:20;;;;;;;23.90;12.93;;;;;;;;;;4875815;29;20041;-70
2022/12/25 15:03:47;;;;;;;37.88;13.57;;;;;;;;;;4880953;29;20116;-71
2022/12/25 15:06:19;;;;;;;29.67;13.35;;;8.80;99.90;;;;;;4868137;29;20184;-71
2022/12/25 15:08:59;;;;;;;31.17;13.90;;;;;;;;;;4882746;29;20119;-72
2022/12/25 15:11:25;;;;;;;26.50;13.07;;;;;;;;;;4877904;29;20080;-72
2022/12/25 15:13:51;;;;;;;37.15;13.98;;;;;;;;;;4850520;29;20044;-72
2022/12/25 15:16:19;;;;;;;30.60;14.45;;;;;;;;;;4866177;29;20040;-72
2022/12/25 15:18:46;;;;;;;32.47;14.63;;;;;;;;;;4882191;29;20042;-72
2022/12/25 15:21:21;;;;;;;33.55;16.00;;;;;;;;;;4900247;29;20451;-72
2022/12/25 15:23:47;;;;;;;37.78;17.10;;;;;;;;;;4882123;29;20397;-72
2022/12/25 15:26:14;;;;;;;38.20;16.05;;;;;;;;;;4880009;29;20127;-72
2022/12/25 15:28:40;;;;;;;29.85;14.77;;;;;;;;;;4872215;29;20449;-72
2022/12/25 15:31:25;;;;;;;36.10;15.45;;;8.90;99.90;;;;;;4897891;29;20393;-72
2022/12/25 15:33:52;;;;;;;30.52;14.32;;;8.90;99.90;;;;;;4864141;29;20081;-72
2022/12/25 15:36:18;;;;;;;34.10;15.43;;;;;;;;;;4898742;29;20136;-72
2022/12/25 15:38:45;;;;;;;32.75;14.30;;;;;;;;;;4866015;29;20080;-72